TRA658 EHRD-LIRZ
Flight info
| Callsign | TRA658 |
|---|---|
| Flight time | 1h 42m |
| Altitude | 33000 |
| Route | LUNIX Z739 MISGO DCT ASBON DCT TUSUK DCT UTABA DCT BEMKI DCT ELMEM DCT GIRIS DCT DIKEM DCT VIC DCT LUMAV DCT SUKOM DCT VERUN Q25 LAKOX |
| Aircraft | A320/M-SDE3FGHIRWY/LB1 |
Departure
| Time | 2026-04-29 11:20 |
|---|---|
| Airport | Rotterdam The Hague Airport (EHRD) |
Arrival
| Time | 2026-04-29 13:02 |
|---|---|
| Airport | Perugia San Francesco d'Assisi – Umbria International Airport (LIRZ) |
| Time | Latitude | Longitude | Altitude | Speed | Heading |
|---|---|---|---|---|---|
| 2026-04-29 11:01 | 51.95113 | 4.43484 | 2 ft | 0 kts | 327° |
| 2026-04-29 11:16 | 51.95121 | 4.43478 | 1 ft | 3 kts | 329° |
| 2026-04-29 11:16 | 51.95148 | 4.43467 | 1 ft | 5 kts | 18° |
| 2026-04-29 11:16 | 51.95183 | 4.43489 | 1 ft | 6 kts | 358° |
| 2026-04-29 11:17 | 51.95228 | 4.43449 | 1 ft | 8 kts | 325° |
| 2026-04-29 11:17 | 51.95224 | 4.43360 | 1 ft | 10 kts | 240° |
| 2026-04-29 11:17 | 51.95184 | 4.43252 | 1 ft | 12 kts | 238° |
| 2026-04-29 11:17 | 51.95138 | 4.43118 | 1 ft | 15 kts | 245° |
| 2026-04-29 11:18 | 51.95114 | 4.42962 | 1 ft | 15 kts | 291° |
| 2026-04-29 11:18 | 51.95184 | 4.42869 | 1 ft | 8 kts | 324° |
| 2026-04-29 11:18 | 51.95231 | 4.42884 | 3 ft | 8 kts | 48° |
| 2026-04-29 11:18 | 51.95249 | 4.42931 | 2 ft | 0 kts | 60° |
| 2026-04-29 11:19 | 51.95306 | 4.43085 | 2 ft | 50 kts | 58° |
| 2026-04-29 11:19 | 51.95616 | 4.43853 | 0 ft | 109 kts | 57° |
| 2026-04-29 11:19 | 51.96113 | 4.45099 | 118 ft | 144 kts | 57° |
| 2026-04-29 11:20 | 51.96640 | 4.46464 | 790 ft | 142 kts | 62° |
| 2026-04-29 11:20 | 51.97164 | 4.47827 | 1410 ft | 145 kts | 60° |
| 2026-04-29 11:20 | 51.97728 | 4.49291 | 1709 ft | 166 kts | 60° |
| 2026-04-29 11:20 | 51.98367 | 4.51004 | 1974 ft | 191 kts | 64° |
| 2026-04-29 11:21 | 51.98993 | 4.53052 | 2412 ft | 214 kts | 67° |
| 2026-04-29 11:21 | 51.99657 | 4.55346 | 2940 ft | 232 kts | 67° |
| 2026-04-29 11:21 | 52.00601 | 4.57516 | 3734 ft | 244 kts | 43° |
| 2026-04-29 11:21 | 52.02173 | 4.58722 | 4638 ft | 255 kts | 25° |
| 2026-04-29 11:22 | 52.03820 | 4.59770 | 5524 ft | 255 kts | 29° |
| 2026-04-29 11:22 | 52.05340 | 4.61202 | 6369 ft | 251 kts | 47° |
| 2026-04-29 11:22 | 52.06354 | 4.63469 | 7136 ft | 250 kts | 70° |
| 2026-04-29 11:22 | 52.06665 | 4.66242 | 7873 ft | 253 kts | 93° |
| 2026-04-29 11:23 | 52.06329 | 4.69082 | 8640 ft | 259 kts | 102° |
| 2026-04-29 11:23 | 52.05905 | 4.71950 | 9395 ft | 263 kts | 102° |
| 2026-04-29 11:23 | 52.05473 | 4.74858 | 10137 ft | 267 kts | 101° |
| 2026-04-29 11:23 | 52.05037 | 4.77821 | 10733 ft | 276 kts | 101° |
| 2026-04-29 11:24 | 52.04574 | 4.80989 | 10906 ft | 299 kts | 101° |
| 2026-04-29 11:24 | 52.04077 | 4.84402 | 11043 ft | 322 kts | 102° |
| 2026-04-29 11:24 | 52.03549 | 4.88005 | 11482 ft | 331 kts | 102° |
| 2026-04-29 11:24 | 52.03017 | 4.91614 | 12122 ft | 334 kts | 102° |
| 2026-04-29 11:25 | 52.02470 | 4.95316 | 12732 ft | 339 kts | 102° |
| 2026-04-29 11:25 | 52.01915 | 4.99070 | 13322 ft | 344 kts | 102° |
| 2026-04-29 11:25 | 52.01354 | 5.02857 | 13990 ft | 346 kts | 102° |
| 2026-04-29 11:25 | 52.00786 | 5.06676 | 14590 ft | 350 kts | 102° |
| 2026-04-29 11:26 | 51.99630 | 5.14437 | 15656 ft | 357 kts | 101° |
| 2026-04-29 11:26 | 51.99040 | 5.18376 | 16210 ft | 360 kts | 101° |
| 2026-04-29 11:26 | 51.98445 | 5.22334 | 16748 ft | 364 kts | 101° |
| 2026-04-29 11:27 | 51.97842 | 5.26338 | 17259 ft | 368 kts | 101° |
| 2026-04-29 11:27 | 51.97231 | 5.30402 | 17806 ft | 372 kts | 101° |
| 2026-04-29 11:27 | 51.96615 | 5.34495 | 18392 ft | 374 kts | 101° |
| 2026-04-29 11:27 | 51.96000 | 5.38572 | 18893 ft | 379 kts | 101° |
| 2026-04-29 11:28 | 51.95370 | 5.42747 | 19365 ft | 384 kts | 101° |
| 2026-04-29 11:28 | 51.94730 | 5.46964 | 19910 ft | 386 kts | 101° |
| 2026-04-29 11:28 | 51.94080 | 5.51212 | 20472 ft | 389 kts | 101° |
| 2026-04-29 11:28 | 51.93424 | 5.55472 | 20999 ft | 391 kts | 101° |
| 2026-04-29 11:29 | 51.92762 | 5.59768 | 21503 ft | 394 kts | 101° |
| 2026-04-29 11:29 | 51.92097 | 5.64084 | 21999 ft | 396 kts | 101° |
| 2026-04-29 11:29 | 51.91429 | 5.68421 | 22472 ft | 398 kts | 101° |
| 2026-04-29 11:29 | 51.90756 | 5.72799 | 22934 ft | 401 kts | 101° |
| 2026-04-29 11:30 | 51.90078 | 5.77194 | 23398 ft | 403 kts | 101° |
| 2026-04-29 11:30 | 51.89393 | 5.81603 | 23850 ft | 405 kts | 101° |
| 2026-04-29 11:30 | 51.88702 | 5.86047 | 24242 ft | 408 kts | 101° |
| 2026-04-29 11:30 | 51.88007 | 5.90503 | 24622 ft | 409 kts | 101° |
| 2026-04-29 11:31 | 51.87304 | 5.94977 | 25002 ft | 410 kts | 101° |
| 2026-04-29 11:31 | 51.86597 | 5.99461 | 25374 ft | 412 kts | 101° |
| 2026-04-29 11:31 | 51.85673 | 6.03863 | 25730 ft | 417 kts | 110° |
| 2026-04-29 11:31 | 51.84273 | 6.07996 | 26083 ft | 423 kts | 120° |
| 2026-04-29 11:32 | 51.82429 | 6.11736 | 26438 ft | 428 kts | 127° |
| 2026-04-29 11:32 | 51.80450 | 6.15340 | 26797 ft | 430 kts | 127° |
| 2026-04-29 11:32 | 51.78463 | 6.18964 | 27151 ft | 431 kts | 127° |
| 2026-04-29 11:32 | 51.76502 | 6.22546 | 27493 ft | 432 kts | 127° |
| 2026-04-29 11:33 | 51.74509 | 6.26187 | 27834 ft | 434 kts | 127° |
| 2026-04-29 11:33 | 51.72501 | 6.29851 | 28173 ft | 435 kts | 127° |
| 2026-04-29 11:33 | 51.70496 | 6.33500 | 28637 ft | 434 kts | 127° |
| 2026-04-29 11:33 | 51.68496 | 6.37131 | 29110 ft | 433 kts | 127° |
| 2026-04-29 11:34 | 51.66502 | 6.40746 | 29592 ft | 431 kts | 126° |
| 2026-04-29 11:34 | 51.64512 | 6.44349 | 30073 ft | 429 kts | 126° |
| 2026-04-29 11:34 | 51.62527 | 6.47942 | 30573 ft | 427 kts | 126° |
| 2026-04-29 11:34 | 51.60558 | 6.51506 | 30999 ft | 425 kts | 126° |
| 2026-04-29 11:35 | 51.58593 | 6.55060 | 31422 ft | 424 kts | 126° |
| 2026-04-29 11:35 | 51.56640 | 6.58593 | 31840 ft | 422 kts | 125° |
| 2026-04-29 11:35 | 51.54719 | 6.62065 | 32260 ft | 421 kts | 125° |
| 2026-04-29 11:35 | 51.52773 | 6.65571 | 32689 ft | 419 kts | 125° |
| 2026-04-29 11:36 | 51.50830 | 6.69059 | 33109 ft | 418 kts | 125° |
| 2026-04-29 11:36 | 51.48894 | 6.72530 | 33302 ft | 418 kts | 125° |
| 2026-04-29 11:36 | 51.44950 | 6.79602 | 33328 ft | 429 kts | 125° |
| 2026-04-29 11:37 | 51.40869 | 6.86636 | 33319 ft | 436 kts | 131° |
| 2026-04-29 11:37 | 51.35826 | 6.92279 | 33340 ft | 445 kts | 141° |
| 2026-04-29 11:38 | 51.30573 | 6.97557 | 33326 ft | 445 kts | 141° |
| 2026-04-29 11:38 | 51.25322 | 7.02829 | 33326 ft | 446 kts | 141° |
| 2026-04-29 11:39 | 51.20074 | 7.08094 | 33327 ft | 446 kts | 141° |
| 2026-04-29 11:39 | 51.14807 | 7.13351 | 33350 ft | 446 kts | 141° |
| 2026-04-29 11:40 | 51.09580 | 7.18554 | 33319 ft | 447 kts | 141° |
| 2026-04-29 11:40 | 51.04302 | 7.23792 | 33308 ft | 447 kts | 141° |
| 2026-04-29 11:41 | 50.99012 | 7.29035 | 33304 ft | 447 kts | 141° |
| 2026-04-29 11:41 | 50.93721 | 7.34263 | 33305 ft | 448 kts | 141° |
| 2026-04-29 11:42 | 50.88465 | 7.39440 | 33303 ft | 448 kts | 141° |
| 2026-04-29 11:42 | 50.83173 | 7.44634 | 33309 ft | 448 kts | 141° |
| 2026-04-29 11:43 | 50.77876 | 7.49829 | 33301 ft | 448 kts | 141° |
| 2026-04-29 11:43 | 50.72567 | 7.55012 | 33324 ft | 449 kts | 141° |
| 2026-04-29 11:44 | 50.67308 | 7.60307 | 33316 ft | 448 kts | 140° |
| 2026-04-29 11:44 | 50.62128 | 7.65753 | 33312 ft | 448 kts | 140° |
| 2026-04-29 11:45 | 50.57823 | 7.70274 | 33313 ft | 448 kts | 140° |
| 2026-04-29 11:45 | 50.52609 | 7.75671 | 33307 ft | 448 kts | 140° |
| 2026-04-29 11:46 | 50.47381 | 7.81022 | 33308 ft | 448 kts | 141° |
| 2026-04-29 11:46 | 50.42146 | 7.86361 | 33302 ft | 448 kts | 140° |
| 2026-04-29 11:47 | 50.36918 | 7.91704 | 33314 ft | 449 kts | 141° |
| 2026-04-29 11:47 | 50.31713 | 7.97016 | 33294 ft | 449 kts | 141° |
| 2026-04-29 11:48 | 50.26470 | 8.02357 | 33284 ft | 450 kts | 141° |
| 2026-04-29 11:48 | 50.21213 | 8.07688 | 33275 ft | 450 kts | 141° |
| 2026-04-29 11:49 | 50.15942 | 8.13001 | 33270 ft | 450 kts | 141° |
| 2026-04-29 11:49 | 50.10407 | 8.17718 | 33268 ft | 456 kts | 151° |
| 2026-04-29 11:50 | 50.04648 | 8.21876 | 33264 ft | 457 kts | 151° |
| 2026-04-29 11:50 | 49.98905 | 8.25999 | 33280 ft | 458 kts | 151° |
| 2026-04-29 11:51 | 49.93113 | 8.30150 | 33265 ft | 458 kts | 151° |
| 2026-04-29 11:51 | 49.87315 | 8.34316 | 33263 ft | 459 kts | 152° |
| 2026-04-29 11:52 | 49.81515 | 8.38479 | 33248 ft | 460 kts | 153° |
| 2026-04-29 11:52 | 49.75701 | 8.42637 | 33250 ft | 460 kts | 153° |
| 2026-04-29 11:53 | 49.69876 | 8.46778 | 33241 ft | 461 kts | 153° |
| 2026-04-29 11:53 | 49.64049 | 8.50905 | 33234 ft | 461 kts | 154° |
| 2026-04-29 11:54 | 49.58240 | 8.55021 | 33224 ft | 463 kts | 154° |
| 2026-04-29 11:54 | 49.52379 | 8.59164 | 33226 ft | 464 kts | 154° |
| 2026-04-29 11:55 | 49.46505 | 8.63303 | 33229 ft | 464 kts | 154° |
| 2026-04-29 11:55 | 49.40623 | 8.67438 | 33222 ft | 465 kts | 156° |
| 2026-04-29 11:56 | 49.34720 | 8.71575 | 33210 ft | 467 kts | 156° |
| 2026-04-29 11:56 | 49.28790 | 8.75713 | 33209 ft | 469 kts | 156° |
| 2026-04-29 11:57 | 49.22843 | 8.79850 | 33203 ft | 470 kts | 156° |
| 2026-04-29 11:57 | 49.16875 | 8.83992 | 33171 ft | 470 kts | 158° |
| 2026-04-29 11:58 | 49.10939 | 8.88103 | 33192 ft | 472 kts | 158° |
| 2026-04-29 11:58 | 49.04942 | 8.92257 | 33180 ft | 473 kts | 158° |
| 2026-04-29 11:59 | 48.98930 | 8.96414 | 33174 ft | 474 kts | 158° |
| 2026-04-29 11:59 | 48.92908 | 9.00545 | 33159 ft | 475 kts | 159° |
| 2026-04-29 12:00 | 48.86880 | 9.04672 | 33161 ft | 476 kts | 158° |
| 2026-04-29 12:00 | 48.80840 | 9.08810 | 33169 ft | 476 kts | 158° |
| 2026-04-29 12:01 | 48.74798 | 9.12941 | 33177 ft | 477 kts | 158° |
| 2026-04-29 12:01 | 48.68749 | 9.17064 | 33179 ft | 477 kts | 159° |
| 2026-04-29 12:02 | 48.62724 | 9.21146 | 33177 ft | 478 kts | 159° |
| 2026-04-29 12:02 | 48.56647 | 9.25251 | 33176 ft | 478 kts | 159° |
| 2026-04-29 12:03 | 48.50571 | 9.29351 | 33155 ft | 478 kts | 159° |
| 2026-04-29 12:03 | 48.44493 | 9.33458 | 33151 ft | 479 kts | 159° |
| 2026-04-29 12:04 | 48.38400 | 9.37548 | 33158 ft | 479 kts | 159° |
| 2026-04-29 12:04 | 48.32315 | 9.41617 | 33158 ft | 479 kts | 159° |
| 2026-04-29 12:05 | 48.26307 | 9.45811 | 33147 ft | 481 kts | 153° |
| 2026-04-29 12:05 | 48.20900 | 9.51836 | 33150 ft | 487 kts | 143° |
| 2026-04-29 12:06 | 48.15657 | 9.58312 | 33153 ft | 489 kts | 144° |
| 2026-04-29 12:06 | 48.10391 | 9.64764 | 33163 ft | 489 kts | 144° |
| 2026-04-29 12:07 | 48.05113 | 9.71222 | 33162 ft | 490 kts | 144° |
| 2026-04-29 12:07 | 47.99831 | 9.77671 | 33150 ft | 490 kts | 144° |
| 2026-04-29 12:08 | 47.94567 | 9.84071 | 33157 ft | 492 kts | 144° |
| 2026-04-29 12:08 | 47.89257 | 9.90513 | 33166 ft | 492 kts | 144° |
| 2026-04-29 12:09 | 47.83930 | 9.96949 | 33164 ft | 493 kts | 144° |
| 2026-04-29 12:09 | 47.78608 | 10.03383 | 33158 ft | 493 kts | 144° |
| 2026-04-29 12:10 | 47.73280 | 10.09799 | 33142 ft | 493 kts | 145° |
| 2026-04-29 12:10 | 47.67937 | 10.16209 | 33153 ft | 493 kts | 145° |
| 2026-04-29 12:11 | 47.62638 | 10.22550 | 33154 ft | 493 kts | 145° |
| 2026-04-29 12:11 | 47.57300 | 10.28941 | 33153 ft | 493 kts | 145° |
| 2026-04-29 12:12 | 47.51700 | 10.34704 | 33130 ft | 489 kts | 151° |
| 2026-04-29 12:12 | 47.46001 | 10.40224 | 33146 ft | 488 kts | 151° |
| 2026-04-29 12:13 | 47.40322 | 10.45717 | 33165 ft | 488 kts | 151° |
| 2026-04-29 12:13 | 47.34638 | 10.51211 | 33167 ft | 488 kts | 151° |
| 2026-04-29 12:14 | 47.28969 | 10.56577 | 33151 ft | 485 kts | 156° |
| 2026-04-29 12:14 | 47.22858 | 10.60591 | 33155 ft | 480 kts | 162° |
| 2026-04-29 12:15 | 47.16695 | 10.64367 | 33175 ft | 480 kts | 162° |
| 2026-04-29 12:15 | 47.10528 | 10.68148 | 33181 ft | 480 kts | 162° |
| 2026-04-29 12:16 | 47.04363 | 10.71914 | 33167 ft | 480 kts | 162° |
| 2026-04-29 12:16 | 46.98192 | 10.75667 | 33181 ft | 480 kts | 162° |
| 2026-04-29 12:17 | 46.92027 | 10.79426 | 33186 ft | 480 kts | 162° |
| 2026-04-29 12:17 | 46.85858 | 10.83170 | 33159 ft | 480 kts | 162° |
| 2026-04-29 12:18 | 46.79687 | 10.86895 | 33167 ft | 480 kts | 162° |
| 2026-04-29 12:18 | 46.73558 | 10.90756 | 33170 ft | 481 kts | 159° |
| 2026-04-29 12:19 | 46.67544 | 10.95078 | 33165 ft | 483 kts | 157° |
| 2026-04-29 12:19 | 46.61598 | 10.99487 | 33156 ft | 482 kts | 157° |
| 2026-04-29 12:20 | 46.55597 | 11.03816 | 33154 ft | 481 kts | 158° |
| 2026-04-29 12:20 | 46.49571 | 11.08053 | 33147 ft | 481 kts | 158° |
| 2026-04-29 12:21 | 46.43538 | 11.12275 | 33140 ft | 481 kts | 158° |
| 2026-04-29 12:21 | 46.37515 | 11.16499 | 33189 ft | 481 kts | 158° |
| 2026-04-29 12:22 | 46.31495 | 11.20739 | 33196 ft | 480 kts | 158° |
| 2026-04-29 12:22 | 46.25485 | 11.24963 | 33201 ft | 480 kts | 158° |
| 2026-04-29 12:23 | 46.19508 | 11.29128 | 33141 ft | 480 kts | 158° |
| 2026-04-29 12:23 | 46.13490 | 11.33317 | 33135 ft | 480 kts | 158° |
| 2026-04-29 12:24 | 46.07465 | 11.37513 | 33138 ft | 481 kts | 158° |
| 2026-04-29 12:24 | 46.01447 | 11.41700 | 33133 ft | 480 kts | 158° |
| 2026-04-29 12:25 | 45.95431 | 11.45869 | 33113 ft | 479 kts | 158° |
| 2026-04-29 12:26 | 45.86417 | 11.52075 | 33115 ft | 479 kts | 158° |
| 2026-04-29 12:26 | 45.80410 | 11.56212 | 33117 ft | 478 kts | 158° |
| 2026-04-29 12:27 | 45.74405 | 11.60331 | 33112 ft | 478 kts | 158° |
| 2026-04-29 12:27 | 45.68435 | 11.64400 | 33123 ft | 477 kts | 160° |
| 2026-04-29 12:28 | 45.62157 | 11.67010 | 33122 ft | 466 kts | 177° |
| 2026-04-29 12:28 | 45.55714 | 11.67053 | 33101 ft | 458 kts | 188° |
| 2026-04-29 12:29 | 45.49382 | 11.66566 | 33107 ft | 458 kts | 187° |
| 2026-04-29 12:29 | 45.43004 | 11.66108 | 33107 ft | 458 kts | 187° |
| 2026-04-29 12:30 | 45.36625 | 11.65651 | 33094 ft | 458 kts | 187° |
| 2026-04-29 12:30 | 45.30256 | 11.65180 | 33104 ft | 458 kts | 187° |
| 2026-04-29 12:31 | 45.23919 | 11.64715 | 33102 ft | 458 kts | 187° |
| 2026-04-29 12:31 | 45.17552 | 11.64247 | 33074 ft | 458 kts | 187° |
| 2026-04-29 12:32 | 45.11180 | 11.63788 | 33076 ft | 458 kts | 186° |
| 2026-04-29 12:32 | 45.04809 | 11.63332 | 33071 ft | 458 kts | 186° |
| 2026-04-29 12:33 | 44.99520 | 11.62950 | 33071 ft | 458 kts | 187° |
| 2026-04-29 12:33 | 44.93154 | 11.62482 | 33064 ft | 458 kts | 186° |
| 2026-04-29 12:34 | 44.86798 | 11.62023 | 33068 ft | 457 kts | 186° |
| 2026-04-29 12:34 | 44.80423 | 11.61864 | 33076 ft | 461 kts | 177° |
| 2026-04-29 12:35 | 44.74063 | 11.63128 | 33072 ft | 462 kts | 174° |
| 2026-04-29 12:35 | 44.67705 | 11.64450 | 33076 ft | 461 kts | 174° |
| 2026-04-29 12:36 | 44.61350 | 11.65748 | 33078 ft | 461 kts | 175° |
| 2026-04-29 12:36 | 44.54991 | 11.67031 | 33067 ft | 461 kts | 175° |
| 2026-04-29 12:37 | 44.48640 | 11.68303 | 33071 ft | 461 kts | 174° |
| 2026-04-29 12:37 | 44.42338 | 11.69580 | 33090 ft | 459 kts | 175° |
| 2026-04-29 12:38 | 44.36028 | 11.70853 | 33086 ft | 456 kts | 175° |
| 2026-04-29 12:38 | 44.29754 | 11.72116 | 33084 ft | 454 kts | 175° |
| 2026-04-29 12:39 | 44.23520 | 11.73364 | 31996 ft | 449 kts | 175° |
| 2026-04-29 12:39 | 44.20375 | 11.73987 | 29981 ft | 465 kts | 174° |
| 2026-04-29 12:39 | 44.17129 | 11.74629 | 28011 ft | 474 kts | 174° |
| 2026-04-29 12:39 | 44.13882 | 11.75277 | 26646 ft | 468 kts | 174° |
| 2026-04-29 12:40 | 44.10684 | 11.75918 | 25415 ft | 461 kts | 174° |
| 2026-04-29 12:40 | 44.07537 | 11.76548 | 24250 ft | 452 kts | 174° |
| 2026-04-29 12:40 | 44.04452 | 11.77167 | 23316 ft | 441 kts | 174° |
| 2026-04-29 12:40 | 44.01494 | 11.77762 | 22763 ft | 420 kts | 175° |
| 2026-04-29 12:41 | 43.98658 | 11.78331 | 22205 ft | 403 kts | 175° |
| 2026-04-29 12:41 | 43.95930 | 11.78874 | 21672 ft | 389 kts | 175° |
| 2026-04-29 12:41 | 43.93288 | 11.79397 | 21187 ft | 380 kts | 175° |
| 2026-04-29 12:41 | 43.90665 | 11.79911 | 20695 ft | 381 kts | 175° |
| 2026-04-29 12:42 | 43.88052 | 11.80418 | 20218 ft | 378 kts | 175° |
| 2026-04-29 12:42 | 43.85458 | 11.80926 | 19741 ft | 375 kts | 175° |
| 2026-04-29 12:42 | 43.82884 | 11.81434 | 19265 ft | 374 kts | 176° |
| 2026-04-29 12:42 | 43.80317 | 11.81939 | 18779 ft | 370 kts | 176° |
| 2026-04-29 12:43 | 43.77819 | 11.82434 | 18294 ft | 365 kts | 176° |
| 2026-04-29 12:43 | 43.75314 | 11.82932 | 17774 ft | 361 kts | 175° |
| 2026-04-29 12:43 | 43.72826 | 11.83424 | 17262 ft | 359 kts | 175° |
| 2026-04-29 12:43 | 43.70368 | 11.83910 | 16772 ft | 356 kts | 175° |
| 2026-04-29 12:44 | 43.67924 | 11.84387 | 16263 ft | 353 kts | 175° |
| 2026-04-29 12:44 | 43.65493 | 11.84858 | 15754 ft | 353 kts | 175° |
| 2026-04-29 12:44 | 43.63062 | 11.85329 | 15230 ft | 352 kts | 175° |
| 2026-04-29 12:44 | 43.60632 | 11.85803 | 14709 ft | 352 kts | 175° |
| 2026-04-29 12:45 | 43.58214 | 11.86276 | 14185 ft | 351 kts | 174° |
| 2026-04-29 12:45 | 43.55792 | 11.86749 | 13638 ft | 351 kts | 174° |
| 2026-04-29 12:45 | 43.53378 | 11.87219 | 13084 ft | 350 kts | 174° |
| 2026-04-29 12:45 | 43.50975 | 11.87687 | 12551 ft | 348 kts | 174° |
| 2026-04-29 12:46 | 43.48584 | 11.88155 | 12024 ft | 346 kts | 174° |
| 2026-04-29 12:46 | 43.46242 | 11.88617 | 11505 ft | 344 kts | 174° |
| 2026-04-29 12:46 | 43.43845 | 11.89089 | 10971 ft | 342 kts | 174° |
| 2026-04-29 12:46 | 43.41532 | 11.89541 | 10639 ft | 334 kts | 174° |
| 2026-04-29 12:47 | 43.39324 | 11.89977 | 10508 ft | 308 kts | 174° |
| 2026-04-29 12:47 | 43.37263 | 11.90384 | 10203 ft | 293 kts | 175° |
| 2026-04-29 12:47 | 43.35279 | 11.90771 | 9927 ft | 283 kts | 175° |
| 2026-04-29 12:47 | 43.33311 | 11.91150 | 9807 ft | 286 kts | 175° |
| 2026-04-29 12:48 | 43.31341 | 11.91530 | 9673 ft | 285 kts | 175° |
| 2026-04-29 12:48 | 43.29392 | 11.92075 | 9539 ft | 287 kts | 163° |
| 2026-04-29 12:48 | 43.27597 | 11.93301 | 9374 ft | 291 kts | 148° |
| 2026-04-29 12:48 | 43.26085 | 11.95162 | 9019 ft | 294 kts | 134° |
| 2026-04-29 12:49 | 43.24703 | 11.97235 | 8631 ft | 294 kts | 134° |
| 2026-04-29 12:49 | 43.23324 | 11.99305 | 8314 ft | 291 kts | 134° |
| 2026-04-29 12:49 | 43.21958 | 12.01350 | 7934 ft | 289 kts | 134° |
| 2026-04-29 12:49 | 43.20609 | 12.03364 | 7490 ft | 282 kts | 134° |
| 2026-04-29 12:50 | 43.19338 | 12.05261 | 7300 ft | 266 kts | 134° |
| 2026-04-29 12:50 | 43.18104 | 12.07101 | 6919 ft | 259 kts | 134° |
| 2026-04-29 12:50 | 43.16891 | 12.08908 | 6456 ft | 256 kts | 132° |
| 2026-04-29 12:50 | 43.15883 | 12.10914 | 6043 ft | 255 kts | 118° |
| 2026-04-29 12:51 | 43.15257 | 12.13182 | 5891 ft | 256 kts | 106° |
| 2026-04-29 12:51 | 43.14642 | 12.15470 | 5843 ft | 256 kts | 122° |
| 2026-04-29 12:51 | 43.13553 | 12.17366 | 5779 ft | 252 kts | 139° |
| 2026-04-29 12:51 | 43.12163 | 12.18743 | 5674 ft | 241 kts | 154° |
| 2026-04-29 12:52 | 43.10649 | 12.19577 | 5578 ft | 229 kts | 162° |
| 2026-04-29 12:52 | 43.09175 | 12.20286 | 5522 ft | 218 kts | 162° |
| 2026-04-29 12:52 | 43.07749 | 12.20974 | 5529 ft | 217 kts | 162° |
| 2026-04-29 12:52 | 43.06325 | 12.21662 | 5530 ft | 217 kts | 162° |
| 2026-04-29 12:53 | 43.04902 | 12.22353 | 5530 ft | 217 kts | 161° |
| 2026-04-29 12:53 | 43.03474 | 12.23049 | 5531 ft | 217 kts | 161° |
| 2026-04-29 12:53 | 43.02051 | 12.23745 | 5530 ft | 217 kts | 161° |
| 2026-04-29 12:53 | 43.00625 | 12.24440 | 5532 ft | 217 kts | 161° |
| 2026-04-29 12:54 | 42.99206 | 12.25129 | 5533 ft | 216 kts | 162° |
| 2026-04-29 12:54 | 42.97786 | 12.25819 | 5532 ft | 216 kts | 162° |
| 2026-04-29 12:54 | 42.96373 | 12.26506 | 5529 ft | 215 kts | 163° |
| 2026-04-29 12:54 | 42.94961 | 12.27191 | 5526 ft | 215 kts | 163° |
| 2026-04-29 12:55 | 42.93604 | 12.28049 | 5526 ft | 216 kts | 147° |
| 2026-04-29 12:55 | 42.92524 | 12.29456 | 5530 ft | 220 kts | 130° |
| 2026-04-29 12:55 | 42.91545 | 12.31098 | 5531 ft | 220 kts | 131° |
| 2026-04-29 12:55 | 42.90586 | 12.32688 | 5531 ft | 220 kts | 133° |
| 2026-04-29 12:56 | 42.89610 | 12.34302 | 5533 ft | 221 kts | 132° |
| 2026-04-29 12:56 | 42.88634 | 12.35917 | 5527 ft | 221 kts | 131° |
| 2026-04-29 12:56 | 42.87933 | 12.37770 | 5529 ft | 222 kts | 99° |
| 2026-04-29 12:56 | 42.88132 | 12.39759 | 5499 ft | 209 kts | 63° |
| 2026-04-29 12:57 | 42.89066 | 12.41248 | 5231 ft | 210 kts | 39° |
| 2026-04-29 12:57 | 42.90212 | 12.42534 | 4823 ft | 215 kts | 40° |
| 2026-04-29 12:57 | 42.91376 | 12.43827 | 4468 ft | 216 kts | 39° |
| 2026-04-29 12:57 | 42.92544 | 12.45094 | 4153 ft | 212 kts | 34° |
| 2026-04-29 12:58 | 42.93883 | 12.45876 | 3873 ft | 209 kts | 13° |
| 2026-04-29 12:58 | 42.95268 | 12.46344 | 3609 ft | 200 kts | 13° |
| 2026-04-29 12:58 | 42.96577 | 12.46797 | 3402 ft | 186 kts | 12° |
| 2026-04-29 12:58 | 42.97784 | 12.47215 | 3165 ft | 174 kts | 12° |
| 2026-04-29 12:59 | 42.98938 | 12.47615 | 2948 ft | 168 kts | 11° |
| 2026-04-29 12:59 | 43.00067 | 12.48007 | 2689 ft | 166 kts | 12° |
| 2026-04-29 12:59 | 43.01176 | 12.48393 | 2446 ft | 162 kts | 12° |
| 2026-04-29 12:59 | 43.02238 | 12.48762 | 2213 ft | 153 kts | 13° |
| 2026-04-29 13:00 | 43.03248 | 12.49113 | 1980 ft | 153 kts | 11° |
| 2026-04-29 13:00 | 43.04276 | 12.49470 | 1752 ft | 153 kts | 12° |
| 2026-04-29 13:00 | 43.05308 | 12.49829 | 1525 ft | 152 kts | 12° |
| 2026-04-29 13:00 | 43.06326 | 12.50189 | 1284 ft | 151 kts | 12° |
| 2026-04-29 13:01 | 43.07338 | 12.50553 | 1023 ft | 150 kts | 12° |
| 2026-04-29 13:01 | 43.08341 | 12.50901 | 815 ft | 147 kts | 9° |
| 2026-04-29 13:01 | 43.09327 | 12.51228 | 677 ft | 140 kts | 11° |
| 2026-04-29 13:01 | 43.10118 | 12.51502 | 670 ft | 80 kts | 14° |
| 2026-04-29 13:02 | 43.10405 | 12.51601 | 671 ft | 26 kts | 14° |
| 2026-04-29 13:02 | 43.10601 | 12.51665 | 669 ft | 29 kts | 14° |
| 2026-04-29 13:02 | 43.10727 | 12.51708 | 669 ft | 7 kts | 9° |
| 2026-04-29 13:02 | 43.10763 | 12.51670 | 669 ft | 8 kts | 290° |
| 2026-04-29 13:03 | 43.10779 | 12.51587 | 669 ft | 9 kts | 284° |
| 2026-04-29 13:03 | 43.10769 | 12.51507 | 669 ft | 10 kts | 220° |
| 2026-04-29 13:03 | 43.10694 | 12.51476 | 669 ft | 12 kts | 194° |
| 2026-04-29 13:03 | 43.10601 | 12.51443 | 669 ft | 15 kts | 194° |
| 2026-04-29 13:04 | 43.10492 | 12.51406 | 669 ft | 18 kts | 194° |
| 2026-04-29 13:04 | 43.10365 | 12.51361 | 669 ft | 20 kts | 194° |
| 2026-04-29 13:04 | 43.10223 | 12.51312 | 669 ft | 22 kts | 194° |
| 2026-04-29 13:04 | 43.10077 | 12.51261 | 669 ft | 22 kts | 194° |
| 2026-04-29 13:05 | 43.09932 | 12.51210 | 669 ft | 14 kts | 194° |
| 2026-04-29 13:05 | 43.09828 | 12.51174 | 667 ft | 14 kts | 194° |
| 2026-04-29 13:05 | 43.09751 | 12.51096 | 669 ft | 16 kts | 247° |
| 2026-04-29 13:05 | 43.09703 | 12.50952 | 667 ft | 18 kts | 246° |
| 2026-04-29 13:06 | 43.09648 | 12.50786 | 669 ft | 20 kts | 245° |
| 2026-04-29 13:06 | 43.09594 | 12.50622 | 668 ft | 15 kts | 247° |
| 2026-04-29 13:06 | 43.09557 | 12.50506 | 667 ft | 11 kts | 246° |
| 2026-04-29 13:06 | 43.09581 | 12.50428 | 669 ft | 7 kts | 309° |
| 2026-04-29 13:07 | 43.09578 | 12.50394 | 669 ft | 3 kts | 255° |
| 2026-04-29 13:07 | 43.09574 | 12.50377 | 668 ft | 2 kts | 250° |
| 2026-04-29 13:07 | 43.09573 | 12.50359 | 669 ft | 1 kts | 278° |
| 2026-04-29 13:07 | 43.09575 | 12.50351 | 669 ft | 0 kts | 285° |